sensor_id;sensor_type;location;lat;lon;timestamp;temperature;humidity
38241;DHT22;24037;49.536;8.500;2023-05-10T00:00:56;13.30;99.90
38241;DHT22;24037;49.536;8.500;2023-05-10T00:03:22;13.20;99.90
38241;DHT22;24037;49.536;8.500;2023-05-10T00:05:48;13.20;99.90
38241;DHT22;24037;49.536;8.500;2023-05-10T00:08:14;13.20;99.90
38241;DHT22;24037;49.536;8.500;2023-05-10T00:10:40;13.10;99.90
38241;DHT22;24037;49.536;8.500;2023-05-10T00:13:07;13.10;99.90
38241;DHT22;24037;49.536;8.500;2023-05-10T00:15:33;13.10;99.90
38241;DHT22;24037;49.536;8.500;2023-05-10T00:18:00;13.10;99.90
38241;DHT22;24037;49.536;8.500;2023-05-10T00:20:26;13.00;99.90
38241;DHT22;24037;49.536;8.500;2023-05-10T00:22:52;13.10;99.90
38241;DHT22;24037;49.536;8.500;2023-05-10T00:25:19;13.00;99.90
38241;DHT22;24037;49.536;8.500;2023-05-10T00:27:47;13.00;99.90
38241;DHT22;24037;49.536;8.500;2023-05-10T00:30:13;13.00;99.90
38241;DHT22;24037;49.536;8.500;2023-05-10T00:32:40;12.90;99.90
38241;DHT22;24037;49.536;8.500;2023-05-10T00:35:06;13.00;99.90
38241;DHT22;24037;49.536;8.500;2023-05-10T00:37:32;13.00;99.90
38241;DHT22;24037;49.536;8.500;2023-05-10T00:40:00;13.00;99.90
38241;DHT22;24037;49.536;8.500;2023-05-10T00:42:26;13.00;99.90
38241;DHT22;24037;49.536;8.500;2023-05-10T00:44:54;12.90;99.90
38241;DHT22;24037;49.536;8.500;2023-05-10T00:47:20;12.80;99.90
38241;DHT22;24037;49.536;8.500;2023-05-10T00:49:47;12.90;99.90
38241;DHT22;24037;49.536;8.500;2023-05-10T00:52:14;12.80;99.90
38241;DHT22;24037;49.536;8.500;2023-05-10T00:54:41;12.90;99.90
38241;DHT22;24037;49.536;8.500;2023-05-10T00:57:07;12.80;99.90
38241;DHT22;24037;49.536;8.500;2023-05-10T00:59:33;12.90;99.90
38241;DHT22;24037;49.536;8.500;2023-05-10T01:02:00;12.80;99.90
38241;DHT22;24037;49.536;8.500;2023-05-10T01:04:29;12.80;99.90
38241;DHT22;24037;49.536;8.500;2023-05-10T01:06:56;12.90;99.90
38241;DHT22;24037;49.536;8.500;2023-05-10T01:13:04;12.80;99.90
38241;DHT22;24037;49.536;8.500;2023-05-10T01:15:31;12.80;99.90
38241;DHT22;24037;49.536;8.500;2023-05-10T01:17:57;12.80;99.90
38241;DHT22;24037;49.536;8.500;2023-05-10T01:20:24;12.90;99.90
38241;DHT22;24037;49.536;8.500;2023-05-10T01:35:10;12.80;99.90
38241;DHT22;24037;49.536;8.500;2023-05-10T01:37:44;12.80;99.90
38241;DHT22;24037;49.536;8.500;2023-05-10T01:43:02;12.70;99.90
38241;DHT22;24037;49.536;8.500;2023-05-10T01:45:33;12.70;99.90
38241;DHT22;24037;49.536;8.500;2023-05-10T01:48:08;12.70;99.90
38241;DHT22;24037;49.536;8.500;2023-05-10T01:50:37;12.70;99.90
38241;DHT22;24037;49.536;8.500;2023-05-10T01:53:07;12.80;99.90
38241;DHT22;24037;49.536;8.500;2023-05-10T01:55:39;12.80;99.90
38241;DHT22;24037;49.536;8.500;2023-05-10T01:58:09;12.70;99.90
38241;DHT22;24037;49.536;8.500;2023-05-10T02:00:36;12.70;99.90
38241;DHT22;24037;49.536;8.500;2023-05-10T02:03:08;12.70;99.90
38241;DHT22;24037;49.536;8.500;2023-05-10T02:05:38;12.80;99.90
38241;DHT22;24037;49.536;8.500;2023-05-10T02:08:07;12.70;99.90
38241;DHT22;24037;49.536;8.500;2023-05-10T02:10:37;12.80;99.90
38241;DHT22;24037;49.536;8.500;2023-05-10T02:13:05;12.70;99.90
38241;DHT22;24037;49.536;8.500;2023-05-10T02:15:33;12.70;99.90
38241;DHT22;24037;49.536;8.500;2023-05-10T02:18:01;12.70;99.90
38241;DHT22;24037;49.536;8.500;2023-05-10T02:20:29;12.70;99.90
38241;DHT22;24037;49.536;8.500;2023-05-10T02:22:57;12.70;99.90
38241;DHT22;24037;49.536;8.500;2023-05-10T02:25:25;12.70;99.90
38241;DHT22;24037;49.536;8.500;2023-05-10T02:27:54;12.60;99.90
38241;DHT22;24037;49.536;8.500;2023-05-10T02:30:22;12.60;99.90
38241;DHT22;24037;49.536;8.500;2023-05-10T02:32:50;12.60;99.90
38241;DHT22;24037;49.536;8.500;2023-05-10T02:35:18;12.60;99.90
38241;DHT22;24037;49.536;8.500;2023-05-10T02:37:45;12.60;99.90
38241;DHT22;24037;49.536;8.500;2023-05-10T02:40:13;12.60;99.90
38241;DHT22;24037;49.536;8.500;2023-05-10T02:42:42;12.50;99.90
38241;DHT22;24037;49.536;8.500;2023-05-10T02:45:15;12.50;99.90
38241;DHT22;24037;49.536;8.500;2023-05-10T02:47:43;12.50;99.90
38241;DHT22;24037;49.536;8.500;2023-05-10T02:50:09;12.50;99.90
38241;DHT22;24037;49.536;8.500;2023-05-10T02:52:42;12.50;99.90
38241;DHT22;24037;49.536;8.500;2023-05-10T02:55:13;12.50;99.90
38241;DHT22;24037;49.536;8.500;2023-05-10T02:57:41;12.50;99.90
38241;DHT22;24037;49.536;8.500;2023-05-10T03:00:09;12.60;99.90
38241;DHT22;24037;49.536;8.500;2023-05-10T03:02:35;12.60;99.90
38241;DHT22;24037;49.536;8.500;2023-05-10T03:05:02;12.60;99.90
38241;DHT22;24037;49.536;8.500;2023-05-10T03:07:29;12.60;99.90
38241;DHT22;24037;49.536;8.500;2023-05-10T03:09:55;12.70;99.90
38241;DHT22;24037;49.536;8.500;2023-05-10T03:18:07;12.60;99.90
38241;DHT22;24037;49.536;8.500;2023-05-10T03:20:49;12.60;99.90
38241;DHT22;24037;49.536;8.500;2023-05-10T03:26:04;12.60;99.90
38241;DHT22;24037;49.536;8.500;2023-05-10T03:28:31;12.70;99.90
38241;DHT22;24037;49.536;8.500;2023-05-10T03:30:59;12.70;99.90
38241;DHT22;24037;49.536;8.500;2023-05-10T03:33:25;12.70;99.90
38241;DHT22;24037;49.536;8.500;2023-05-10T03:35:52;12.70;99.90
38241;DHT22;24037;49.536;8.500;2023-05-10T03:38:18;12.60;99.90
38241;DHT22;24037;49.536;8.500;2023-05-10T03:40:45;12.60;99.90
38241;DHT22;24037;49.536;8.500;2023-05-10T03:43:11;12.60;99.90
38241;DHT22;24037;49.536;8.500;2023-05-10T03:45:38;12.60;99.90
38241;DHT22;24037;49.536;8.500;2023-05-10T03:48:04;12.50;99.90
38241;DHT22;24037;49.536;8.500;2023-05-10T03:50:31;12.50;99.90
38241;DHT22;24037;49.536;8.500;2023-05-10T03:52:57;12.50;99.90
38241;DHT22;24037;49.536;8.500;2023-05-10T03:55:23;12.50;99.90
38241;DHT22;24037;49.536;8.500;2023-05-10T03:57:50;12.40;99.90
38241;DHT22;24037;49.536;8.500;2023-05-10T04:00:16;12.40;99.90
38241;DHT22;24037;49.536;8.500;2023-05-10T04:02:50;12.30;99.90
38241;DHT22;24037;49.536;8.500;2023-05-10T04:05:18;12.20;99.90
38241;DHT22;24037;49.536;8.500;2023-05-10T04:07:44;12.20;99.90
38241;DHT22;24037;49.536;8.500;2023-05-10T04:10:11;12.10;99.90
38241;DHT22;24037;49.536;8.500;2023-05-10T04:12:37;12.10;99.90
38241;DHT22;24037;49.536;8.500;2023-05-10T04:15:03;12.10;99.90
38241;DHT22;24037;49.536;8.500;2023-05-10T04:17:30;12.10;99.90
38241;DHT22;24037;49.536;8.500;2023-05-10T04:19:57;12.20;99.90
38241;DHT22;24037;49.536;8.500;2023-05-10T04:22:23;12.20;99.90
38241;DHT22;24037;49.536;8.500;2023-05-10T04:24:49;12.20;99.90
38241;DHT22;24037;49.536;8.500;2023-05-10T04:27:15;12.20;99.90
38241;DHT22;24037;49.536;8.500;2023-05-10T04:29:41;12.10;99.90
38241;DHT22;24037;49.536;8.500;2023-05-10T04:32:07;12.10;99.90
38241;DHT22;24037;49.536;8.500;2023-05-10T04:34:34;12.10;99.90
38241;DHT22;24037;49.536;8.500;2023-05-10T04:37:00;12.10;99.90
38241;DHT22;24037;49.536;8.500;2023-05-10T04:39:26;12.20;99.90
38241;DHT22;24037;49.536;8.500;2023-05-10T04:41:52;12.20;99.90
38241;DHT22;24037;49.536;8.500;2023-05-10T04:44:18;12.20;99.90
38241;DHT22;24037;49.536;8.500;2023-05-10T04:46:44;12.20;99.90
38241;DHT22;24037;49.536;8.500;2023-05-10T04:49:10;12.30;99.90
38241;DHT22;24037;49.536;8.500;2023-05-10T04:51:37;12.30;99.90
38241;DHT22;24037;49.536;8.500;2023-05-10T04:54:03;12.30;99.90
38241;DHT22;24037;49.536;8.500;2023-05-10T04:56:29;12.30;99.90
38241;DHT22;24037;49.536;8.500;2023-05-10T04:58:55;12.30;99.90
38241;DHT22;24037;49.536;8.500;2023-05-10T05:01:21;12.30;99.90
38241;DHT22;24037;49.536;8.500;2023-05-10T05:03:49;12.40;99.90
38241;DHT22;24037;49.536;8.500;2023-05-10T05:06:18;12.40;99.90
38241;DHT22;24037;49.536;8.500;2023-05-10T05:08:44;12.40;99.90
38241;DHT22;24037;49.536;8.500;2023-05-10T05:11:10;12.40;99.90
38241;DHT22;24037;49.536;8.500;2023-05-10T05:13:36;12.40;99.90
38241;DHT22;24037;49.536;8.500;2023-05-10T05:16:03;12.40;99.90
38241;DHT22;24037;49.536;8.500;2023-05-10T05:18:29;12.40;99.90
38241;DHT22;24037;49.536;8.500;2023-05-10T05:20:55;12.40;99.90
38241;DHT22;24037;49.536;8.500;2023-05-10T05:23:21;12.40;99.90
38241;DHT22;24037;49.536;8.500;2023-05-10T05:25:53;12.50;99.90
38241;DHT22;24037;49.536;8.500;2023-05-10T05:28:20;12.60;99.90
38241;DHT22;24037;49.536;8.500;2023-05-10T05:30:46;12.70;99.90
38241;DHT22;24037;49.536;8.500;2023-05-10T05:33:15;12.70;99.90
38241;DHT22;24037;49.536;8.500;2023-05-10T05:35:42;12.80;99.90
38241;DHT22;24037;49.536;8.500;2023-05-10T05:38:13;12.80;99.90
38241;DHT22;24037;49.536;8.500;2023-05-10T05:40:39;12.80;99.90
38241;DHT22;24037;49.536;8.500;2023-05-10T05:43:05;12.90;99.90
38241;DHT22;24037;49.536;8.500;2023-05-10T05:45:31;12.90;99.90
38241;DHT22;24037;49.536;8.500;2023-05-10T05:47:57;12.90;99.90
38241;DHT22;24037;49.536;8.500;2023-05-10T05:50:24;13.00;99.90
38241;DHT22;24037;49.536;8.500;2023-05-10T05:52:50;13.00;99.90
38241;DHT22;24037;49.536;8.500;2023-05-10T05:55:16;13.00;99.90
38241;DHT22;24037;49.536;8.500;2023-05-10T05:57:43;13.00;99.90
38241;DHT22;24037;49.536;8.500;2023-05-10T06:00:09;13.00;99.90
38241;DHT22;24037;49.536;8.500;2023-05-10T06:02:38;13.00;99.90
38241;DHT22;24037;49.536;8.500;2023-05-10T06:05:05;13.10;99.90
38241;DHT22;24037;49.536;8.500;2023-05-10T06:07:31;13.10;99.90
38241;DHT22;24037;49.536;8.500;2023-05-10T06:09:57;13.20;99.90
38241;DHT22;24037;49.536;8.500;2023-05-10T06:12:24;13.30;99.90
38241;DHT22;24037;49.536;8.500;2023-05-10T06:14:50;13.50;99.90
38241;DHT22;24037;49.536;8.500;2023-05-10T06:17:18;13.70;99.90
38241;DHT22;24037;49.536;8.500;2023-05-10T06:19:44;14.00;99.90
38241;DHT22;24037;49.536;8.500;2023-05-10T06:22:11;14.30;69.30
38241;DHT22;24037;49.536;8.500;2023-05-10T06:24:37;14.30;15.60
38241;DHT22;24037;49.536;8.500;2023-05-10T06:27:03;14.30;3.80
38241;DHT22;24037;49.536;8.500;2023-05-10T06:29:29;14.10;6.60
38241;DHT22;24037;49.536;8.500;2023-05-10T06:31:56;14.10;11.00
38241;DHT22;24037;49.536;8.500;2023-05-10T06:34:22;14.00;20.10
38241;DHT22;24037;49.536;8.500;2023-05-10T06:36:48;13.90;18.50
38241;DHT22;24037;49.536;8.500;2023-05-10T06:39:14;13.90;29.90
38241;DHT22;24037;49.536;8.500;2023-05-10T06:41:41;13.90;51.60
38241;DHT22;24037;49.536;8.500;2023-05-10T06:44:07;13.90;52.50
38241;DHT22;24037;49.536;8.500;2023-05-10T06:46:34;13.90;37.20
38241;DHT22;24037;49.536;8.500;2023-05-10T06:49:00;14.00;57.70
38241;DHT22;24037;49.536;8.500;2023-05-10T06:51:27;14.10;46.10
38241;DHT22;24037;49.536;8.500;2023-05-10T06:53:53;14.20;25.50
38241;DHT22;24037;49.536;8.500;2023-05-10T06:56:19;14.20;1.00
38241;DHT22;24037;49.536;8.500;2023-05-10T06:58:50;14.20;1.00
38241;DHT22;24037;49.536;8.500;2023-05-10T07:01:16;14.30;1.00
38241;DHT22;24037;49.536;8.500;2023-05-10T07:03:42;14.30;1.00
38241;DHT22;24037;49.536;8.500;2023-05-10T07:06:08;14.40;1.00
38241;DHT22;24037;49.536;8.500;2023-05-10T07:08:34;14.50;1.00
38241;DHT22;24037;49.536;8.500;2023-05-10T07:11:02;14.50;1.00
38241;DHT22;24037;49.536;8.500;2023-05-10T07:13:32;14.70;1.00
38241;DHT22;24037;49.536;8.500;2023-05-10T07:15:59;14.80;1.00
38241;DHT22;24037;49.536;8.500;2023-05-10T07:18:25;15.00;1.00
38241;DHT22;24037;49.536;8.500;2023-05-10T07:20:52;15.20;1.00
38241;DHT22;24037;49.536;8.500;2023-05-10T07:23:18;15.40;99.90
38241;DHT22;24037;49.536;8.500;2023-05-10T07:25:46;15.60;99.90
38241;DHT22;24037;49.536;8.500;2023-05-10T07:28:13;15.90;99.90
38241;DHT22;24037;49.536;8.500;2023-05-10T07:30:40;15.90;99.90
38241;DHT22;24037;49.536;8.500;2023-05-10T07:33:10;16.00;99.90
38241;DHT22;24037;49.536;8.500;2023-05-10T07:35:37;15.90;99.90
38241;DHT22;24037;49.536;8.500;2023-05-10T07:38:03;15.90;99.90
38241;DHT22;24037;49.536;8.500;2023-05-10T07:40:30;16.20;99.90
38241;DHT22;24037;49.536;8.500;2023-05-10T07:42:56;16.30;99.90
38241;DHT22;24037;49.536;8.500;2023-05-10T07:45:22;16.70;99.90
38241;DHT22;24037;49.536;8.500;2023-05-10T07:47:49;16.80;99.90
38241;DHT22;24037;49.536;8.500;2023-05-10T07:50:15;16.70;99.90
38241;DHT22;24037;49.536;8.500;2023-05-10T07:52:42;16.70;99.90
38241;DHT22;24037;49.536;8.500;2023-05-10T07:55:08;16.60;99.90
38241;DHT22;24037;49.536;8.500;2023-05-10T07:57:35;16.30;99.90
38241;DHT22;24037;49.536;8.500;2023-05-10T08:00:01;16.00;99.90
38241;DHT22;24037;49.536;8.500;2023-05-10T08:02:39;15.90;99.90
38241;DHT22;24037;49.536;8.500;2023-05-10T08:05:06;15.80;99.90
38241;DHT22;24037;49.536;8.500;2023-05-10T08:07:32;16.00;99.90
38241;DHT22;24037;49.536;8.500;2023-05-10T08:09:58;16.00;99.90
38241;DHT22;24037;49.536;8.500;2023-05-10T08:12:24;16.00;99.90
38241;DHT22;24037;49.536;8.500;2023-05-10T08:14:50;15.70;99.90
38241;DHT22;24037;49.536;8.500;2023-05-10T08:17:17;15.50;99.90
38241;DHT22;24037;49.536;8.500;2023-05-10T08:19:43;15.50;99.90
38241;DHT22;24037;49.536;8.500;2023-05-10T08:22:09;15.60;99.90
38241;DHT22;24037;49.536;8.500;2023-05-10T08:24:36;15.50;99.90
38241;DHT22;24037;49.536;8.500;2023-05-10T08:27:07;15.70;99.90
38241;DHT22;24037;49.536;8.500;2023-05-10T08:29:37;16.00;99.90
38241;DHT22;24037;49.536;8.500;2023-05-10T08:32:04;16.30;99.90
38241;DHT22;24037;49.536;8.500;2023-05-10T08:34:30;16.40;99.90
38241;DHT22;24037;49.536;8.500;2023-05-10T08:36:57;16.60;99.90
38241;DHT22;24037;49.536;8.500;2023-05-10T08:39:23;16.80;99.90
38241;DHT22;24037;49.536;8.500;2023-05-10T08:41:51;17.00;90.20
38241;DHT22;24037;49.536;8.500;2023-05-10T08:44:20;16.90;85.50
38241;DHT22;24037;49.536;8.500;2023-05-10T08:46:46;16.80;96.30
38241;DHT22;24037;49.536;8.500;2023-05-10T08:49:17;16.90;97.60
38241;DHT22;24037;49.536;8.500;2023-05-10T08:51:50;17.00;99.90
38241;DHT22;24037;49.536;8.500;2023-05-10T08:54:21;17.20;99.90
38241;DHT22;24037;49.536;8.500;2023-05-10T08:56:47;16.80;93.80
38241;DHT22;24037;49.536;8.500;2023-05-10T08:59:14;16.30;99.10
38241;DHT22;24037;49.536;8.500;2023-05-10T09:01:43;16.00;99.90
38241;DHT22;24037;49.536;8.500;2023-05-10T09:04:10;15.70;99.90
38241;DHT22;24037;49.536;8.500;2023-05-10T09:06:37;15.60;99.90
38241;DHT22;24037;49.536;8.500;2023-05-10T09:09:04;15.30;99.90
38241;DHT22;24037;49.536;8.500;2023-05-10T09:11:30;15.20;99.90
38241;DHT22;24037;49.536;8.500;2023-05-10T09:13:57;15.10;99.90
38241;DHT22;24037;49.536;8.500;2023-05-10T09:16:24;14.70;99.90
38241;DHT22;24037;49.536;8.500;2023-05-10T09:18:50;14.60;99.90
38241;DHT22;24037;49.536;8.500;2023-05-10T09:21:16;14.60;99.90
38241;DHT22;24037;49.536;8.500;2023-05-10T09:23:46;14.70;99.90
38241;DHT22;24037;49.536;8.500;2023-05-10T09:26:13;14.80;99.90
38241;DHT22;24037;49.536;8.500;2023-05-10T09:28:55;15.00;99.90
38241;DHT22;24037;49.536;8.500;2023-05-10T09:31:22;15.20;99.90
38241;DHT22;24037;49.536;8.500;2023-05-10T09:33:50;15.60;99.90
38241;DHT22;24037;49.536;8.500;2023-05-10T09:36:17;15.80;99.90
38241;DHT22;24037;49.536;8.500;2023-05-10T09:38:51;16.00;99.90
38241;DHT22;24037;49.536;8.500;2023-05-10T09:41:22;16.00;96.80
38241;DHT22;24037;49.536;8.500;2023-05-10T09:43:48;16.10;99.90
38241;DHT22;24037;49.536;8.500;2023-05-10T09:46:15;16.30;99.90
38241;DHT22;24037;49.536;8.500;2023-05-10T09:48:44;16.50;99.90
38241;DHT22;24037;49.536;8.500;2023-05-10T09:51:16;16.40;90.00
38241;DHT22;24037;49.536;8.500;2023-05-10T09:53:44;16.10;99.90
38241;DHT22;24037;49.536;8.500;2023-05-10T09:56:11;15.90;99.90
38241;DHT22;24037;49.536;8.500;2023-05-10T09:58:37;15.90;99.90
38241;DHT22;24037;49.536;8.500;2023-05-10T10:01:11;15.90;97.40
38241;DHT22;24037;49.536;8.500;2023-05-10T10:03:42;15.70;96.40
38241;DHT22;24037;49.536;8.500;2023-05-10T10:06:09;15.60;85.90
38241;DHT22;24037;49.536;8.500;2023-05-10T10:08:35;15.50;70.00
38241;DHT22;24037;49.536;8.500;2023-05-10T10:11:01;15.60;59.60
38241;DHT22;24037;49.536;8.500;2023-05-10T10:13:28;15.80;75.60
38241;DHT22;24037;49.536;8.500;2023-05-10T10:15:55;15.60;95.40
38241;DHT22;24037;49.536;8.500;2023-05-10T10:18:21;15.70;70.40
38241;DHT22;24037;49.536;8.500;2023-05-10T10:20:54;15.80;71.80
38241;DHT22;24037;49.536;8.500;2023-05-10T10:23:20;16.00;19.30
38241;DHT22;24037;49.536;8.500;2023-05-10T10:25:46;16.20;8.00
38241;DHT22;24037;49.536;8.500;2023-05-10T10:28:44;16.90;14.20
38241;DHT22;24037;49.536;8.500;2023-05-10T10:31:36;17.20;1.00
38241;DHT22;24037;49.536;8.500;2023-05-10T10:34:06;17.40;1.00
38241;DHT22;24037;49.536;8.500;2023-05-10T10:36:41;17.20;1.00
38241;DHT22;24037;49.536;8.500;2023-05-10T10:39:12;16.80;1.00
38241;DHT22;24037;49.536;8.500;2023-05-10T10:41:59;17.00;1.00
38241;DHT22;24037;49.536;8.500;2023-05-10T10:52:22;17.60;1.00
38241;DHT22;24037;49.536;8.500;2023-05-10T11:00:36;17.10;1.00
38241;DHT22;24037;49.536;8.500;2023-05-10T11:03:10;17.40;1.00
38241;DHT22;24037;49.536;8.500;2023-05-10T11:08:31;18.00;1.00
38241;DHT22;24037;49.536;8.500;2023-05-10T11:13:34;17.80;1.00
38241;DHT22;24037;49.536;8.500;2023-05-10T11:16:21;17.90;1.00
38241;DHT22;24037;49.536;8.500;2023-05-10T11:19:09;18.20;99.90
38241;DHT22;24037;49.536;8.500;2023-05-10T11:21:45;18.10;1.00
38241;DHT22;24037;49.536;8.500;2023-05-10T11:24:18;17.80;1.00
38241;DHT22;24037;49.536;8.500;2023-05-10T11:26:45;17.90;1.00
38241;DHT22;24037;49.536;8.500;2023-05-10T11:29:13;17.90;1.00
38241;DHT22;24037;49.536;8.500;2023-05-10T11:31:43;18.40;1.00
38241;DHT22;24037;49.536;8.500;2023-05-10T11:34:11;18.30;99.90
38241;DHT22;24037;49.536;8.500;2023-05-10T11:36:37;18.40;99.90
38241;DHT22;24037;49.536;8.500;2023-05-10T11:39:04;18.40;99.90
38241;DHT22;24037;49.536;8.500;2023-05-10T11:41:31;18.30;99.90
38241;DHT22;24037;49.536;8.500;2023-05-10T11:43:58;18.30;99.90
38241;DHT22;24037;49.536;8.500;2023-05-10T11:46:26;18.30;99.90
38241;DHT22;24037;49.536;8.500;2023-05-10T11:49:01;18.60;99.90
38241;DHT22;24037;49.536;8.500;2023-05-10T11:51:33;18.30;99.90
38241;DHT22;24037;49.536;8.500;2023-05-10T11:54:00;18.70;99.90
38241;DHT22;24037;49.536;8.500;2023-05-10T11:56:26;18.20;99.90
38241;DHT22;24037;49.536;8.500;2023-05-10T11:58:54;18.20;99.90
38241;DHT22;24037;49.536;8.500;2023-05-10T12:01:22;18.50;99.90
38241;DHT22;24037;49.536;8.500;2023-05-10T12:03:50;18.80;99.90
38241;DHT22;24037;49.536;8.500;2023-05-10T12:06:17;18.20;99.90
38241;DHT22;24037;49.536;8.500;2023-05-10T12:08:45;18.10;99.90
38241;DHT22;24037;49.536;8.500;2023-05-10T12:11:19;18.20;99.90
38241;DHT22;24037;49.536;8.500;2023-05-10T12:13:48;18.40;99.90
38241;DHT22;24037;49.536;8.500;2023-05-10T12:16:25;18.00;99.90
38241;DHT22;24037;49.536;8.500;2023-05-10T12:18:56;18.00;99.90
38241;DHT22;24037;49.536;8.500;2023-05-10T12:21:23;18.00;99.90
38241;DHT22;24037;49.536;8.500;2023-05-10T12:23:52;18.20;99.90
38241;DHT22;24037;49.536;8.500;2023-05-10T12:26:22;18.20;99.90
38241;DHT22;24037;49.536;8.500;2023-05-10T12:28:48;17.90;99.90
38241;DHT22;24037;49.536;8.500;2023-05-10T12:31:14;17.60;99.90
38241;DHT22;24037;49.536;8.500;2023-05-10T12:33:44;17.60;99.90
38241;DHT22;24037;49.536;8.500;2023-05-10T12:36:12;18.00;99.90
38241;DHT22;24037;49.536;8.500;2023-05-10T12:38:40;18.30;99.90
38241;DHT22;24037;49.536;8.500;2023-05-10T12:41:14;18.60;99.90
38241;DHT22;24037;49.536;8.500;2023-05-10T12:43:40;18.90;99.90
38241;DHT22;24037;49.536;8.500;2023-05-10T12:46:11;18.70;99.90
38241;DHT22;24037;49.536;8.500;2023-05-10T12:48:38;18.90;99.90
38241;DHT22;24037;49.536;8.500;2023-05-10T12:51:05;18.80;99.90
38241;DHT22;24037;49.536;8.500;2023-05-10T12:53:35;19.00;99.90
38241;DHT22;24037;49.536;8.500;2023-05-10T12:56:02;18.90;99.90
38241;DHT22;24037;49.536;8.500;2023-05-10T12:58:28;19.00;99.90
38241;DHT22;24037;49.536;8.500;2023-05-10T13:00:54;19.30;99.90
38241;DHT22;24037;49.536;8.500;2023-05-10T13:03:22;19.60;99.90
38241;DHT22;24037;49.536;8.500;2023-05-10T13:05:48;19.90;99.90
38241;DHT22;24037;49.536;8.500;2023-05-10T13:08:14;20.00;99.90
38241;DHT22;24037;49.536;8.500;2023-05-10T13:10:41;19.10;99.90
38241;DHT22;24037;49.536;8.500;2023-05-10T13:13:07;19.30;99.90
38241;DHT22;24037;49.536;8.500;2023-05-10T13:15:34;19.20;99.90
38241;DHT22;24037;49.536;8.500;2023-05-10T13:18:00;19.30;99.90
38241;DHT22;24037;49.536;8.500;2023-05-10T13:20:27;19.40;99.90
38241;DHT22;24037;49.536;8.500;2023-05-10T13:22:53;19.10;99.90
38241;DHT22;24037;49.536;8.500;2023-05-10T13:25:19;18.90;99.90
38241;DHT22;24037;49.536;8.500;2023-05-10T13:27:45;19.10;99.90
38241;DHT22;24037;49.536;8.500;2023-05-10T13:30:12;19.20;99.90
38241;DHT22;24037;49.536;8.500;2023-05-10T13:32:38;19.40;99.90
38241;DHT22;24037;49.536;8.500;2023-05-10T13:35:05;19.40;99.90
38241;DHT22;24037;49.536;8.500;2023-05-10T13:37:33;19.50;99.90
38241;DHT22;24037;49.536;8.500;2023-05-10T13:40:03;19.60;99.90
38241;DHT22;24037;49.536;8.500;2023-05-10T13:42:30;19.80;99.90
38241;DHT22;24037;49.536;8.500;2023-05-10T13:44:57;19.60;99.90
38241;DHT22;24037;49.536;8.500;2023-05-10T13:47:23;19.70;99.90
38241;DHT22;24037;49.536;8.500;2023-05-10T13:49:50;19.90;99.90
38241;DHT22;24037;49.536;8.500;2023-05-10T13:52:16;19.70;99.90
38241;DHT22;24037;49.536;8.500;2023-05-10T13:54:42;19.50;99.90
38241;DHT22;24037;49.536;8.500;2023-05-10T13:57:08;19.20;99.90
38241;DHT22;24037;49.536;8.500;2023-05-10T13:59:34;19.30;99.90
38241;DHT22;24037;49.536;8.500;2023-05-10T14:02:01;19.30;99.90
38241;DHT22;24037;49.536;8.500;2023-05-10T14:04:30;19.10;99.90
38241;DHT22;24037;49.536;8.500;2023-05-10T14:06:56;19.40;99.90
38241;DHT22;24037;49.536;8.500;2023-05-10T14:09:22;19.50;99.90
38241;DHT22;24037;49.536;8.500;2023-05-10T14:11:48;19.60;99.90
38241;DHT22;24037;49.536;8.500;2023-05-10T14:14:15;19.80;99.90
38241;DHT22;24037;49.536;8.500;2023-05-10T14:16:44;19.80;99.90
38241;DHT22;24037;49.536;8.500;2023-05-10T14:19:11;19.80;99.90
38241;DHT22;24037;49.536;8.500;2023-05-10T14:21:37;20.00;99.90
38241;DHT22;24037;49.536;8.500;2023-05-10T14:24:04;19.80;99.90
38241;DHT22;24037;49.536;8.500;2023-05-10T14:26:30;19.80;99.90
38241;DHT22;24037;49.536;8.500;2023-05-10T14:28:57;19.80;99.90
38241;DHT22;24037;49.536;8.500;2023-05-10T14:31:23;19.70;99.90
38241;DHT22;24037;49.536;8.500;2023-05-10T14:33:51;19.70;99.90
38241;DHT22;24037;49.536;8.500;2023-05-10T14:36:17;19.80;99.90
38241;DHT22;24037;49.536;8.500;2023-05-10T14:38:44;19.80;99.90
38241;DHT22;24037;49.536;8.500;2023-05-10T14:41:10;19.50;99.90
38241;DHT22;24037;49.536;8.500;2023-05-10T14:43:40;19.40;99.90
38241;DHT22;24037;49.536;8.500;2023-05-10T14:46:07;19.30;99.90
38241;DHT22;24037;49.536;8.500;2023-05-10T14:48:33;19.60;99.90
38241;DHT22;24037;49.536;8.500;2023-05-10T14:50:59;19.50;99.90
38241;DHT22;24037;49.536;8.500;2023-05-10T14:53:25;19.70;99.90
38241;DHT22;24037;49.536;8.500;2023-05-10T14:55:51;20.10;99.90
38241;DHT22;24037;49.536;8.500;2023-05-10T14:58:19;19.90;99.90
38241;DHT22;24037;49.536;8.500;2023-05-10T15:00:45;19.30;99.90
38241;DHT22;24037;49.536;8.500;2023-05-10T15:03:12;19.20;99.90
38241;DHT22;24037;49.536;8.500;2023-05-10T15:05:38;19.40;99.90
38241;DHT22;24037;49.536;8.500;2023-05-10T15:08:04;19.30;99.90
38241;DHT22;24037;49.536;8.500;2023-05-10T15:10:31;19.20;99.90
38241;DHT22;24037;49.536;8.500;2023-05-10T15:12:59;18.80;99.90
38241;DHT22;24037;49.536;8.500;2023-05-10T15:15:25;18.80;99.90
38241;DHT22;24037;49.536;8.500;2023-05-10T15:17:51;18.50;99.90
38241;DHT22;24037;49.536;8.500;2023-05-10T15:20:17;18.60;99.90
38241;DHT22;24037;49.536;8.500;2023-05-10T15:22:43;18.80;99.90
38241;DHT22;24037;49.536;8.500;2023-05-10T15:25:10;19.10;99.90
38241;DHT22;24037;49.536;8.500;2023-05-10T15:27:36;19.10;99.90
38241;DHT22;24037;49.536;8.500;2023-05-10T15:30:02;19.00;99.90
38241;DHT22;24037;49.536;8.500;2023-05-10T15:32:28;18.80;99.90
38241;DHT22;24037;49.536;8.500;2023-05-10T15:34:55;19.10;99.90
38241;DHT22;24037;49.536;8.500;2023-05-10T15:37:21;19.30;99.90
38241;DHT22;24037;49.536;8.500;2023-05-10T15:39:49;19.60;99.90
38241;DHT22;24037;49.536;8.500;2023-05-10T15:42:15;19.60;99.90
38241;DHT22;24037;49.536;8.500;2023-05-10T15:44:42;19.30;99.90
38241;DHT22;24037;49.536;8.500;2023-05-10T15:47:10;19.40;99.90
38241;DHT22;24037;49.536;8.500;2023-05-10T15:49:36;19.70;99.90
38241;DHT22;24037;49.536;8.500;2023-05-10T15:52:02;19.90;98.30
38241;DHT22;24037;49.536;8.500;2023-05-10T15:54:29;20.00;83.20
38241;DHT22;24037;49.536;8.500;2023-05-10T15:56:56;20.00;99.80
38241;DHT22;24037;49.536;8.500;2023-05-10T15:59:22;19.70;99.90
38241;DHT22;24037;49.536;8.500;2023-05-10T16:01:48;19.30;95.60
38241;DHT22;24037;49.536;8.500;2023-05-10T16:04:15;19.00;99.90
38241;DHT22;24037;49.536;8.500;2023-05-10T16:06:41;19.10;99.90
38241;DHT22;24037;49.536;8.500;2023-05-10T16:09:08;19.10;99.90
38241;DHT22;24037;49.536;8.500;2023-05-10T16:11:35;19.10;99.90
38241;DHT22;24037;49.536;8.500;2023-05-10T16:14:01;19.10;99.90
38241;DHT22;24037;49.536;8.500;2023-05-10T16:16:27;18.90;99.90
38241;DHT22;24037;49.536;8.500;2023-05-10T16:18:54;18.70;99.90
38241;DHT22;24037;49.536;8.500;2023-05-10T16:21:20;18.70;99.90